Time;durP1;ratioP1;P1;durP2;ratioP2;P2;SDS_P1;SDS_P2;PMS_P1;PMS_P2;Temp;Humidity;BMP_temperature;BMP_pressure;BME280_temperature;BME280_humidity;BME280_pressure;Samples;Min_cycle;Max_cycle;Signal;HPM_P1;HPM_P2
2022/12/07 00:00:44;;;;;;;;;;;;;;;12.98;71.95;101511.03;1261414;23;629;-71
2022/12/07 00:01:34;;;;;;;;;;;;;;;12.96;72.17;101509.44;1261525;23;684;-71
2022/12/07 00:02:25;;;;;;;;;;;;;;;12.96;72.68;101504.06;1261513;23;678;-71
2022/12/07 00:03:15;;;;;;;;;;;;;;;12.95;72.42;101508.56;1261601;23;676;-71
2022/12/07 00:04:06;;;;;;;;;;;;;;;12.95;72.38;101507.72;1262307;23;641;-71
2022/12/07 00:04:56;;;;;;;;;;;;;;;12.94;72.35;101511.34;1261384;23;641;-71
2022/12/07 00:05:47;;;;;;;;;;;;;;;12.97;72.58;101508.47;1261436;23;641;-71
2022/12/07 00:06:37;;;;;;;;;;;;;;;12.95;72.63;101508.56;1261413;23;602;-71
2022/12/07 00:07:28;;;;;;;;;;;;;;;12.94;72.85;101505.97;1261458;23;654;-71
2022/12/07 00:08:18;;;;;;;;;;;;;;;12.96;72.55;101509.44;1262413;23;681;-71
2022/12/07 00:09:09;;;;;;;;;;;;;;;12.96;72.33;101514.78;1261381;23;669;-71
2022/12/07 00:09:59;;;;;;;;;;;;;;;12.97;72.35;101503.13;1261373;23;622;-71
2022/12/07 00:10:49;;;;;;;;;;;;;;;12.96;72.56;101509.44;1262230;23;728;-71
2022/12/07 00:11:40;;;;;;;;;;;;;;;12.94;72.53;101511.34;1262365;23;622;-71
2022/12/07 00:12:30;;;;;;;;;;;;;;;12.94;72.79;101509.53;1261443;23;642;-71
2022/12/07 00:13:21;;;;;;;;;;;;;;;12.94;72.12;101511.34;1261270;23;638;-71
2022/12/07 00:14:11;;;;;;;;;;;;;;;12.93;71.87;101501.59;1261489;23;622;-71
2022/12/07 00:15:01;;;;;;;;;;;;;;;12.93;72.56;101509.63;1261448;23;668;-72
2022/12/07 00:15:52;;;;;;;;;;;;;;;12.92;72.25;101502.53;1262459;23;654;-72
2022/12/07 00:16:42;;;;;;;;;;;;;;;12.90;72.80;101502.66;1261396;23;606;-71
2022/12/07 00:17:33;;;;;;;;;;;;;;;12.90;72.27;101499.13;1261427;23;626;-71
2022/12/07 00:18:24;;;;;;;;;;;;;;;12.93;72.38;101496.25;1261477;23;672;-71
2022/12/07 00:19:14;;;;;;;;;;;;;;;12.92;71.76;101502.53;1262390;23;641;-71
2022/12/07 00:20:04;;;;;;;;;;;;;;;12.90;72.01;101501.81;1261472;23;681;-72
2022/12/07 00:20:55;;;;;;;;;;;;;;;12.91;72.38;101500.81;1261486;23;565;-71
2022/12/07 00:21:45;;;;;;;;;;;;;;;12.91;72.71;101495.47;1261357;23;693;-71
2022/12/07 00:22:36;;;;;;;;;;;;;;;12.90;72.66;101493.78;1261452;23;650;-71
2022/12/07 00:23:26;;;;;;;;;;;;;;;12.89;71.99;101497.41;1261427;23;662;-71
2022/12/07 00:24:16;;;;;;;;;;;;;;;12.91;71.94;101495.47;1261508;23;634;-72
2022/12/07 00:25:07;;;;;;;;;;;;;;;12.91;71.95;101499.00;1261358;23;678;-72
2022/12/07 00:25:57;;;;;;;;;;;;;;;12.91;72.34;101491.00;1261342;23;645;-72
2022/12/07 00:26:48;;;;;;;;;;;;;;;12.89;72.56;101489.41;1261382;23;634;-72
2022/12/07 00:27:38;;;;;;;;;;;;;;;12.92;72.11;101486.50;1261357;23;665;-72
2022/12/07 00:28:29;;;;;;;;;;;;;;;12.90;72.32;101485.75;1262303;23;634;-72
2022/12/07 00:29:19;;;;;;;;;;;;;;;12.91;71.73;101487.44;1261420;23;643;-72
2022/12/07 00:30:10;;;;;;;;;;;;;;;12.88;72.72;101493.03;1261301;23;642;-72
2022/12/07 00:31:00;;;;;;;;;;;;;;;12.88;71.79;101487.69;1261437;23;669;-72
2022/12/07 00:31:50;;;;;;;;;;;;;;;12.89;72.32;101484.03;1261416;23;607;-72
2022/12/07 00:32:41;;;;;;;;;;;;;;;12.88;72.38;101490.34;1261270;23;740;-72
2022/12/07 00:33:31;;;;;;;;;;;;;;;12.88;71.93;101490.34;1261445;23;613;-72
2022/12/07 00:34:22;;;;;;;;;;;;;;;12.88;72.69;101485.00;1261482;23;614;-72
2022/12/07 00:35:12;;;;;;;;;;;;;;;12.87;72.69;101484.13;1261327;23;649;-72
2022/12/07 00:36:03;;;;;;;;;;;;;;;12.85;72.45;101486.06;1262170;23;681;-72
2022/12/07 00:36:53;;;;;;;;;;;;;;;12.84;72.30;101478.97;1261753;23;666;-72
2022/12/07 00:37:43;;;;;;;;;;;;;;;12.88;72.63;101480.50;1254235;23;662;-72
2022/12/07 00:38:34;;;;;;;;;;;;;;;12.89;71.99;101482.22;1255953;23;816;-72
2022/12/07 00:39:24;;;;;;;;;;;;;;;12.88;72.24;101477.84;1261098;23;599;-72
2022/12/07 00:40:15;;;;;;;;;;;;;;;12.89;72.41;101476.03;1261306;23;626;-72
2022/12/07 00:41:05;;;;;;;;;;;;;;;12.88;72.02;101474.31;1262212;23;626;-72
2022/12/07 00:41:55;;;;;;;;;;;;;;;12.84;72.55;101471.81;1261423;23;657;-72
2022/12/07 00:42:46;;;;;;;;;;;;;;;12.88;72.17;101480.50;1261176;23;642;-72
2022/12/07 00:43:36;;;;;;;;;;;;;;;12.91;72.18;101479.44;1261449;23;654;-72
2022/12/07 00:44:27;;;;;;;;;;;;;;;12.89;72.03;101470.66;1261263;23;1893;-72
2022/12/07 00:45:17;;;;;;;;;;;;;;;12.84;72.72;101469.16;1261365;23;626;-72
2022/12/07 00:46:08;;;;;;;;;;;;;;;12.86;72.53;101472.59;1261460;23;665;-72
2022/12/07 00:46:58;;;;;;;;;;;;;;;12.84;72.50;101469.16;1261364;23;602;-72
2022/12/07 00:47:49;;;;;;;;;;;;;;;12.86;71.98;101471.72;1261250;23;697;-72
2022/12/07 00:48:39;;;;;;;;;;;;;;;12.83;71.96;101467.44;1261024;23;665;-72
2022/12/07 00:49:29;;;;;;;;;;;;;;;12.84;72.72;101469.16;1261183;23;1341;-72
2022/12/07 00:50:20;;;;;;;;;;;;;;;12.83;72.00;101470.09;1261397;23;592;-72
2022/12/07 00:51:10;;;;;;;;;;;;;;;12.83;72.56;101475.44;1260877;23;623;-72
2022/12/07 00:52:01;;;;;;;;;;;;;;;12.83;72.54;101472.78;1261247;23;598;-72
2022/12/07 00:52:51;;;;;;;;;;;;;;;12.85;71.68;101481.56;1261340;23;591;-72
2022/12/07 00:53:41;;;;;;;;;;;;;;;12.80;71.93;101466.75;1261342;23;673;-72
2022/12/07 00:54:32;;;;;;;;;;;;;;;12.82;72.38;101479.06;1261373;23;653;-72
2022/12/07 00:55:22;;;;;;;;;;;;;;;12.82;72.06;101481.75;1261444;23;642;-72
2022/12/07 00:56:13;;;;;;;;;;;;;;;12.84;72.00;101474.50;1261432;23;633;-72
2022/12/07 00:57:03;;;;;;;;;;;;;;;12.82;72.80;101476.41;1262116;23;657;-72
2022/12/07 00:57:54;;;;;;;;;;;;;;;12.79;72.03;101476.59;1261440;23;678;-72
2022/12/07 00:58:44;;;;;;;;;;;;;;;12.83;72.05;101477.25;1261439;23;653;-72
2022/12/07 00:59:34;;;;;;;;;;;;;;;12.81;72.70;101472.00;1262293;23;681;-72
2022/12/07 01:00:25;;;;;;;;;;;;;;;12.80;72.27;101475.63;1261294;23;626;-72
2022/12/07 01:01:15;;;;;;;;;;;;;;;12.80;72.59;101467.63;1261348;23;658;-72
2022/12/07 01:02:06;;;;;;;;;;;;;;;12.83;71.78;101471.91;1261250;23;630;-72
2022/12/07 01:02:56;;;;;;;;;;;;;;;12.79;72.19;101470.38;1261401;23;623;-71
2022/12/07 01:03:47;;;;;;;;;;;;;;;12.78;72.62;101472.19;1262390;23;633;-72
2022/12/07 01:04:37;;;;;;;;;;;;;;;12.79;72.17;101476.59;1261222;23;1940;-72
2022/12/07 01:05:28;;;;;;;;;;;;;;;12.77;72.30;101467.81;1261242;23;654;-72
2022/12/07 01:06:18;;;;;;;;;;;;;;;12.77;72.06;101472.28;1262331;23;641;-72
2022/12/07 01:07:08;;;;;;;;;;;;;;;12.78;71.95;101468.66;1261282;23;642;-72
2022/12/07 01:07:59;;;;;;;;;;;;;;;12.80;71.80;101472.09;1261398;23;633;-72
2022/12/07 01:08:49;;;;;;;;;;;;;;;12.81;72.45;101468.47;1261205;23;649;-72
2022/12/07 01:09:40;;;;;;;;;;;;;;;12.78;72.48;101469.53;1261249;23;646;-72
2022/12/07 01:10:31;;;;;;;;;;;;;;;12.76;72.04;101465.22;1261267;23;630;-72
2022/12/07 01:11:21;;;;;;;;;;;;;;;12.77;72.66;101467.81;1261307;23;630;-72
2022/12/07 01:12:12;;;;;;;;;;;;;;;12.77;72.18;101465.13;1261436;23;654;-72
2022/12/07 01:13:02;;;;;;;;;;;;;;;12.74;72.45;101468.00;1261282;23;609;-71
2022/12/07 01:13:53;;;;;;;;;;;;;;;12.74;71.88;101473.34;1262062;23;676;-72
2022/12/07 01:14:43;;;;;;;;;;;;;;;12.74;72.30;101473.34;1261259;23;724;-72
2022/12/07 01:15:33;;;;;;;;;;;;;;;12.76;71.92;101465.22;1261198;23;835;-72
2022/12/07 01:16:24;;;;;;;;;;;;;;;12.72;72.62;101469.91;1262069;23;633;-72
2022/12/07 01:17:14;;;;;;;;;;;;;;;12.74;72.51;101467.13;1261389;23;618;-71
2022/12/07 01:18:05;;;;;;;;;;;;;;;12.76;72.78;101475.94;1261373;23;670;-71
2022/12/07 01:18:55;;;;;;;;;;;;;;;12.74;72.59;101467.13;1261468;23;634;-71
2022/12/07 01:19:46;;;;;;;;;;;;;;;12.73;72.80;101468.97;1261300;23;661;-71
2022/12/07 01:20:36;;;;;;;;;;;;;;;12.73;71.88;101479.66;1261163;23;757;-71
2022/12/07 01:21:26;;;;;;;;;;;;;;;12.73;72.35;101476.97;1261347;23;658;-71
2022/12/07 01:22:17;;;;;;;;;;;;;;;12.71;72.86;101478.06;1261313;23;642;-71
2022/12/07 01:23:07;;;;;;;;;;;;;;;12.70;72.83;101479.00;1261383;23;622;-71
2022/12/07 01:23:58;;;;;;;;;;;;;;;12.71;72.93;101475.38;1262061;23;665;-71
2022/12/07 01:24:48;;;;;;;;;;;;;;;12.69;72.23;101472.81;1262057;23;1924;-71
2022/12/07 01:25:39;;;;;;;;;;;;;;;12.69;72.28;101477.28;1261209;23;642;-71
2022/12/07 01:26:29;;;;;;;;;;;;;;;12.68;72.11;101479.09;1261283;23;614;-71
2022/12/07 01:27:19;;;;;;;;;;;;;;;12.68;72.25;101479.09;1261398;23;606;-71
2022/12/07 01:28:10;;;;;;;;;;;;;;;12.66;72.84;101470.31;1261128;23;634;-71
2022/12/07 01:29:00;;;;;;;;;;;;;;;12.66;72.50;101486.38;1261252;23;634;-71
2022/12/07 01:29:51;;;;;;;;;;;;;;;12.68;72.52;101476.44;1261332;23;638;-71
2022/12/07 01:30:41;;;;;;;;;;;;;;;12.67;71.93;101481.88;1261248;23;677;-71
2022/12/07 01:31:32;;;;;;;;;;;;;;;12.65;72.07;101484.66;1262123;23;665;-71
2022/12/07 01:32:22;;;;;;;;;;;;;;;12.66;72.81;101480.16;1261209;23;729;-71
2022/12/07 01:33:12;;;;;;;;;;;;;;;12.67;72.95;101482.75;1261321;23;764;-71
2022/12/07 01:34:03;;;;;;;;;;;;;;;12.64;71.94;101477.56;1261307;23;763;-71
2022/12/07 01:34:53;;;;;;;;;;;;;;;12.63;72.95;101481.22;1260667;23;665;-71
2022/12/07 01:35:44;;;;;;;;;;;;;;;12.66;72.07;101477.47;1261252;23;642;-71
2022/12/07 01:36:34;;;;;;;;;;;;;;;12.66;72.49;101482.84;1262139;23;634;-71
2022/12/07 01:37:25;;;;;;;;;;;;;;;12.64;71.98;101485.59;1261239;23;665;-71
2022/12/07 01:38:15;;;;;;;;;;;;;;;12.63;71.93;101481.22;1261310;23;665;-71
2022/12/07 01:39:05;;;;;;;;;;;;;;;12.64;72.23;101482.06;1261288;23;615;-71
2022/12/07 01:39:56;;;;;;;;;;;;;;;12.63;72.70;101483.88;1261299;23;670;-71
2022/12/07 01:40:46;;;;;;;;;;;;;;;12.64;72.09;101482.94;1261120;23;685;-71
2022/12/07 01:41:38;;;;;;;;;;;;;;;12.64;72.01;101482.94;1261286;23;677;-71
2022/12/07 01:42:29;;;;;;;;;;;;;;;12.65;71.87;101486.47;1261329;23;662;-71
2022/12/07 01:43:19;;;;;;;;;;;;;;;12.64;72.79;101492.75;1261325;23;662;-71
2022/12/07 01:44:10;;;;;;;;;;;;;;;12.65;72.37;101490.00;1261261;23;627;-71
2022/12/07 01:45:00;;;;;;;;;;;;;;;12.65;72.55;101490.00;1261122;23;610;-71
2022/12/07 01:45:51;;;;;;;;;;;;;;;12.64;72.74;101492.75;1261279;23;673;-71
2022/12/07 01:46:41;;;;;;;;;;;;;;;12.62;72.02;101487.50;1262154;23;669;-71
2022/12/07 01:47:31;;;;;;;;;;;;;;;12.62;71.89;101484.84;1261314;23;669;-71
2022/12/07 01:48:22;;;;;;;;;;;;;;;12.60;71.89;101492.09;1261192;23;704;-71
2022/12/07 01:49:12;;;;;;;;;;;;;;;12.62;72.41;101494.66;1260628;23;1112;-71
2022/12/07 01:50:03;;;;;;;;;;;;;;;12.63;72.13;101497.25;1261892;23;601;-71
2022/12/07 01:50:53;;;;;;;;;;;;;;;12.62;72.88;101500.03;1261262;23;578;-71
2022/12/07 01:51:44;;;;;;;;;;;;;;;12.61;72.03;101482.25;1261205;23;696;-72
2022/12/07 01:52:34;;;;;;;;;;;;;;;12.61;72.73;101483.13;1262270;23;665;-72
2022/12/07 01:53:24;;;;;;;;;;;;;;;12.63;72.58;101483.03;1261147;23;614;-71
2022/12/07 01:54:15;;;;;;;;;;;;;;;12.62;72.45;101476.81;1262056;23;664;-71
2022/12/07 01:55:05;;;;;;;;;;;;;;;12.60;72.81;101476.03;1261232;23;665;-72
2022/12/07 01:55:56;;;;;;;;;;;;;;;12.59;72.91;101478.81;1261413;23;626;-71
2022/12/07 01:56:46;;;;;;;;;;;;;;;12.59;72.04;101471.66;1261185;23;610;-71
2022/12/07 01:57:37;;;;;;;;;;;;;;;12.59;72.72;101478.81;1262081;23;665;-71
2022/12/07 01:58:27;;;;;;;;;;;;;;;12.61;72.46;101472.41;1261152;23;650;-71
2022/12/07 01:59:17;;;;;;;;;;;;;;;12.62;71.88;101471.47;1262073;23;630;-71
2022/12/07 02:00:08;;;;;;;;;;;;;;;12.61;72.78;101471.56;1261931;23;645;-71
2022/12/07 02:00:58;;;;;;;;;;;;;;;12.61;72.23;101472.41;1261283;23;630;-72
2022/12/07 02:01:49;;;;;;;;;;;;;;;12.61;72.43;101468.88;1261176;23;672;-72
2022/12/07 02:02:39;;;;;;;;;;;;;;;12.61;71.85;101467.06;1261063;23;625;-71
2022/12/07 02:03:30;;;;;;;;;;;;;;;12.62;72.14;101473.28;1260644;23;680;-72
2022/12/07 02:04:20;;;;;;;;;;;;;;;12.61;72.50;101471.56;1261430;23;598;-71
2022/12/07 02:05:11;;;;;;;;;;;;;;;12.59;72.46;101468.97;1261327;23;653;-72
2022/12/07 02:06:01;;;;;;;;;;;;;;;12.60;72.14;101473.38;1261128;23;658;-71
2022/12/07 02:06:52;;;;;;;;;;;;;;;12.58;72.14;101467.25;1261177;23;689;-72
2022/12/07 02:07:42;;;;;;;;;;;;;;;12.57;72.10;101465.53;1262032;23;638;-71
2022/12/07 02:08:33;;;;;;;;;;;;;;;12.58;71.79;101477.97;1261267;23;665;-72
2022/12/07 02:09:23;;;;;;;;;;;;;;;12.58;72.38;101467.25;1262130;23;609;-71
2022/12/07 02:10:14;;;;;;;;;;;;;;;12.57;72.74;101468.22;1261322;23;602;-72
2022/12/07 02:11:04;;;;;;;;;;;;;;;12.62;72.65;101463.44;1261246;23;650;-71
2022/12/07 02:11:54;;;;;;;;;;;;;;;12.60;71.97;101465.34;1261302;23;646;-71
2022/12/07 02:12:45;;;;;;;;;;;;;;;12.60;71.78;101465.34;1262174;23;601;-71
2022/12/07 02:13:35;;;;;;;;;;;;;;;12.58;72.06;101461.91;1262168;23;633;-71
2022/12/07 02:14:26;;;;;;;;;;;;;;;12.58;72.35;101466.41;1261172;23;653;-71
2022/12/07 02:15:16;;;;;;;;;;;;;;;12.58;72.61;101461.91;1261219;23;646;-71
2022/12/07 02:16:06;;;;;;;;;;;;;;;12.57;72.29;101465.53;1261267;23;632;-71
2022/12/07 02:16:57;;;;;;;;;;;;;;;12.55;72.26;101456.75;1261243;23;681;-71
2022/12/07 02:17:47;;;;;;;;;;;;;;;12.57;72.27;101459.34;1261161;23;618;-71
2022/12/07 02:18:38;;;;;;;;;;;;;;;12.54;72.13;101463.06;1256499;23;712;-71
2022/12/07 02:19:28;;;;;;;;;;;;;;;12.54;72.72;101463.06;1255000;23;625;-71
2022/12/07 02:20:19;;;;;;;;;;;;;;;12.53;71.99;101456.03;1260862;23;669;-71
2022/12/07 02:21:09;;;;;;;;;;;;;;;12.55;72.20;101463.91;1261355;23;626;-71
2022/12/07 02:21:59;;;;;;;;;;;;;;;12.57;72.56;101460.19;1261150;23;614;-71
2022/12/07 02:22:50;;;;;;;;;;;;;;;12.58;71.88;101456.56;1261230;23;646;-72
2022/12/07 02:23:41;;;;;;;;;;;;;;;12.58;72.77;101456.56;1261294;23;618;-72
2022/12/07 02:24:32;;;;;;;;;;;;;;;12.57;72.00;101459.34;1261125;23;1931;-72
2022/12/07 02:25:22;;;;;;;;;;;;;;;12.57;71.91;101454.84;1261220;23;720;-72
2022/12/07 02:26:12;;;;;;;;;;;;;;;12.57;72.85;101448.63;1262150;23;621;-72
2022/12/07 02:27:03;;;;;;;;;;;;;;;12.54;72.40;101447.00;1261195;23;622;-72
2022/12/07 02:27:53;;;;;;;;;;;;;;;12.54;72.84;101448.88;1261331;23;610;-72
2022/12/07 02:28:44;;;;;;;;;;;;;;;12.55;71.93;101455.91;1261139;23;630;-72
2022/12/07 02:29:34;;;;;;;;;;;;;;;12.55;72.08;101450.53;1261277;23;638;-72
2022/12/07 02:30:25;;;;;;;;;;;;;;;12.53;72.74;101448.00;1261255;23;681;-72
2022/12/07 02:31:15;;;;;;;;;;;;;;;12.52;72.41;101452.50;1261369;23;626;-72
2022/12/07 02:32:06;;;;;;;;;;;;;;;12.52;72.06;101448.97;1261284;23;709;-72
2022/12/07 02:32:56;;;;;;;;;;;;;;;12.55;71.98;101445.19;1260563;23;607;-72
2022/12/07 02:33:46;;;;;;;;;;;;;;;12.53;71.90;101448.00;1261225;23;657;-72
2022/12/07 02:34:37;;;;;;;;;;;;;;;12.52;72.35;101454.31;1261253;23;669;-72
2022/12/07 02:35:27;;;;;;;;;;;;;;;12.51;72.60;101450.78;1261377;23;722;-72
2022/12/07 02:36:18;;;;;;;;;;;;;;;12.54;72.82;101454.22;1256405;23;649;-72
2022/12/07 02:37:08;;;;;;;;;;;;;;;12.51;72.74;101455.25;1254912;23;669;-72
2022/12/07 02:37:59;;;;;;;;;;;;;;;12.51;72.89;101455.25;1261118;23;654;-72
2022/12/07 02:38:49;;;;;;;;;;;;;;;12.51;72.06;101456.13;1256490;23;729;-72
2022/12/07 02:39:39;;;;;;;;;;;;;;;12.51;72.31;101455.25;1255061;23;662;-72
2022/12/07 02:40:30;;;;;;;;;;;;;;;12.53;72.22;101450.69;1261202;23;637;-72
2022/12/07 02:41:20;;;;;;;;;;;;;;;12.53;72.91;101448.00;1261185;23;618;-72
2022/12/07 02:42:11;;;;;;;;;;;;;;;12.52;72.56;101449.81;1261254;23;689;-72
2022/12/07 02:43:01;;;;;;;;;;;;;;;12.52;72.69;101449.81;1261146;23;626;-72
2022/12/07 02:43:52;;;;;;;;;;;;;;;12.50;72.51;101449.06;1261997;23;613;-72
2022/12/07 02:44:42;;;;;;;;;;;;;;;12.51;71.83;101453.44;1261278;23;1877;-72
2022/12/07 02:45:32;;;;;;;;;;;;;;;12.51;72.45;101447.25;1261108;23;657;-72
2022/12/07 02:46:23;;;;;;;;;;;;;;;12.50;72.31;101450.88;1261256;23;680;-72
2022/12/07 02:47:13;;;;;;;;;;;;;;;12.50;72.77;101453.53;1260561;23;591;-72
2022/12/07 02:48:04;;;;;;;;;;;;;;;12.52;72.65;101456.97;1261238;23;665;-72
2022/12/07 02:50:03;;;;;;;;;;;;;;;12.49;72.50;101465.19;1262153;23;818;-72
2022/12/07 02:50:54;;;;;;;;;;;;;;;12.49;72.72;101462.50;1261206;23;665;-72
2022/12/07 02:51:44;;;;;;;;;;;;;;;12.49;72.63;101451.81;1261214;23;673;-72
2022/12/07 02:52:34;;;;;;;;;;;;;;;12.51;72.47;101441.88;1261195;23;661;-72
2022/12/07 02:53:25;;;;;;;;;;;;;;;12.51;72.35;101439.22;1261152;23;638;-72
2022/12/07 02:54:15;;;;;;;;;;;;;;;12.50;72.90;101443.72;1261256;23;760;-72
2022/12/07 02:55:06;;;;;;;;;;;;;;;12.49;72.55;101446.47;1261185;23;677;-72
2022/12/07 02:55:56;;;;;;;;;;;;;;;12.50;72.22;101445.53;1261161;23;673;-72
2022/12/07 02:56:46;;;;;;;;;;;;;;;12.50;72.08;101449.06;1261168;23;638;-72
2022/12/07 02:57:37;;;;;;;;;;;;;;;12.55;71.73;101451.41;1261239;23;645;-72
2022/12/07 02:58:27;;;;;;;;;;;;;;;12.55;72.48;101455.91;1262192;23;621;-72
2022/12/07 02:59:18;;;;;;;;;;;;;;;12.54;72.06;101451.53;1261219;23;661;-72
2022/12/07 03:00:08;;;;;;;;;;;;;;;12.52;72.73;101454.31;1261180;23;717;-72
2022/12/07 03:00:59;;;;;;;;;;;;;;;12.50;72.66;101457.06;1261216;23;630;-72
2022/12/07 03:01:49;;;;;;;;;;;;;;;12.50;72.73;101454.41;1260544;23;630;-72
2022/12/07 03:02:40;;;;;;;;;;;;;;;12.49;71.93;101452.69;1261156;23;650;-72
2022/12/07 03:03:30;;;;;;;;;;;;;;;12.52;71.82;101457.84;1261248;23;630;-72
2022/12/07 03:04:20;;;;;;;;;;;;;;;12.50;72.01;101454.41;1261257;23;685;-72
2022/12/07 03:05:11;;;;;;;;;;;;;;;12.50;72.24;101458.88;1261243;23;634;-72
2022/12/07 03:06:01;;;;;;;;;;;;;;;12.50;71.94;101445.53;1261207;23;618;-72
2022/12/07 03:06:52;;;;;;;;;;;;;;;12.49;72.08;101454.50;1261183;23;678;-72
2022/12/07 03:07:42;;;;;;;;;;;;;;;12.49;72.92;101450.00;1261170;23;681;-72
2022/12/07 03:08:32;;;;;;;;;;;;;;;12.50;71.93;101453.53;1261125;23;650;-72
2022/12/07 03:09:23;;;;;;;;;;;;;;;12.49;72.32;101444.66;1261299;23;638;-72
2022/12/07 03:10:13;;;;;;;;;;;;;;;12.49;72.39;101452.69;1261050;23;650;-72
2022/12/07 03:11:04;;;;;;;;;;;;;;;12.49;72.23;101449.16;1261335;23;693;-71
2022/12/07 03:11:54;;;;;;;;;;;;;;;12.47;72.22;101443.03;1262177;23;744;-72
2022/12/07 03:12:45;;;;;;;;;;;;;;;12.46;72.22;101452.00;1261549;23;1341;-72
2022/12/07 03:13:35;;;;;;;;;;;;;;;12.45;72.95;101445.81;1261627;23;665;-72
2022/12/07 03:14:26;;;;;;;;;;;;;;;12.44;71.97;101446.75;1261481;23;661;-72
2022/12/07 03:15:16;;;;;;;;;;;;;;;12.46;72.26;101447.53;1261497;23;693;-72
2022/12/07 03:16:06;;;;;;;;;;;;;;;12.44;72.82;101448.56;1261069;23;662;-72
2022/12/07 03:16:57;;;;;;;;;;;;;;;12.46;72.91;101439.50;1261545;23;704;-72
2022/12/07 03:17:47;;;;;;;;;;;;;;;12.46;72.05;101438.66;1261545;23;675;-72
2022/12/07 03:18:38;;;;;;;;;;;;;;;12.46;71.87;101435.97;1261205;23;630;-72
2022/12/07 03:19:28;;;;;;;;;;;;;;;12.46;71.94;101434.16;1260958;23;642;-71
2022/12/07 03:20:19;;;;;;;;;;;;;;;12.45;72.85;101437.78;1261046;23;611;-71
2022/12/07 03:21:09;;;;;;;;;;;;;;;12.43;71.96;101442.38;1261049;23;681;-72
2022/12/07 03:21:59;;;;;;;;;;;;;;;12.45;72.92;101442.25;1261168;23;638;-71
2022/12/07 03:22:50;;;;;;;;;;;;;;;12.46;72.26;101444.00;1261030;23;646;-71
2022/12/07 03:23:41;;;;;;;;;;;;;;;12.47;71.92;101443.03;1261361;23;634;-71
2022/12/07 03:24:31;;;;;;;;;;;;;;;12.46;72.17;101438.66;1261260;23;1932;-72
2022/12/07 03:25:21;;;;;;;;;;;;;;;12.46;72.25;101442.19;1261183;23;653;-71
2022/12/07 03:26:12;;;;;;;;;;;;;;;12.44;72.71;101446.75;1261079;23;611;-71
2022/12/07 03:27:02;;;;;;;;;;;;;;;12.46;72.76;101449.34;1261375;23;669;-72
2022/12/07 03:27:55;;;;;;;;;;;;;;;12.46;72.80;101449.34;1261508;23;669;-72
2022/12/07 03:28:46;;;;;;;;;;;;;;;12.44;71.81;101440.56;1261466;23;681;-71
2022/12/07 03:29:36;;;;;;;;;;;;;;;12.44;72.10;101448.56;1261605;23;618;-72
2022/12/07 03:30:27;;;;;;;;;;;;;;;12.44;72.39;101440.56;1261460;23;681;-71
2022/12/07 03:31:17;;;;;;;;;;;;;;;12.46;72.77;101444.00;1261488;23;638;-71
2022/12/07 03:32:08;;;;;;;;;;;;;;;12.48;72.62;101450.09;1261551;23;618;-71
2022/12/07 03:32:58;;;;;;;;;;;;;;;12.49;71.85;101457.16;1261499;23;575;-71
2022/12/07 03:33:48;;;;;;;;;;;;;;;12.46;71.98;101457.34;1261458;23;622;-71
2022/12/07 03:34:39;;;;;;;;;;;;;;;12.43;72.59;101457.53;1261562;23;661;-71
2022/12/07 03:35:29;;;;;;;;;;;;;;;12.45;72.50;101451.16;1261483;23;552;-71
2022/12/07 03:36:20;;;;;;;;;;;;;;;12.45;72.73;101455.63;1262363;23;660;-71
2022/12/07 03:37:10;;;;;;;;;;;;;;;12.43;72.77;101449.53;1261629;23;631;-71
2022/12/07 03:38:01;;;;;;;;;;;;;;;12.42;72.63;101447.81;1261527;23;658;-72
2022/12/07 03:38:51;;;;;;;;;;;;;;;12.42;72.30;101451.34;1261530;23;638;-72
2022/12/07 03:39:42;;;;;;;;;;;;;;;12.45;72.60;101455.63;1261472;23;614;-71
2022/12/07 03:40:32;;;;;;;;;;;;;;;12.45;72.11;101450.28;1261530;23;673;-71
2022/12/07 03:41:22;;;;;;;;;;;;;;;12.43;71.86;101449.53;1261575;23;625;-72
2022/12/07 03:42:13;;;;;;;;;;;;;;;12.43;71.91;101454.88;1262446;23;684;-72
2022/12/07 03:43:03;;;;;;;;;;;;;;;12.43;72.67;101452.19;1262530;23;695;-72
2022/12/07 03:43:54;;;;;;;;;;;;;;;12.43;72.77;101453.06;1261566;23;645;-72
2022/12/07 03:44:44;;;;;;;;;;;;;;;12.40;71.88;101450.56;1261414;23;1927;-72
2022/12/07 03:45:35;;;;;;;;;;;;;;;12.41;72.11;101448.75;1261411;23;661;-72
2022/12/07 03:46:25;;;;;;;;;;;;;;;12.40;72.41;101444.38;1261439;23;915;-71
2022/12/07 03:47:15;;;;;;;;;;;;;;;12.40;72.59;101445.22;1261520;23;603;-72
2022/12/07 03:48:06;;;;;;;;;;;;;;;12.39;72.11;101434.63;1261510;23;641;-71
2022/12/07 03:48:56;;;;;;;;;;;;;;;12.42;72.29;101440.66;1261610;23;618;-71
2022/12/07 03:49:47;;;;;;;;;;;;;;;12.40;72.12;101436.34;1261499;23;657;-71
2022/12/07 03:50:37;;;;;;;;;;;;;;;12.40;72.43;101434.53;1261495;23;694;-72
2022/12/07 03:51:28;;;;;;;;;;;;;;;12.39;72.33;101435.47;1261550;23;649;-72
2022/12/07 03:52:18;;;;;;;;;;;;;;;12.40;72.34;101428.31;1261289;23;677;-71
2022/12/07 03:53:08;;;;;;;;;;;;;;;12.42;72.29;101426.41;1261461;23;614;-71
2022/12/07 03:53:59;;;;;;;;;;;;;;;12.41;72.05;101427.38;1261457;23;645;-72
2022/12/07 03:54:49;;;;;;;;;;;;;;;12.38;72.64;101425.75;1261374;23;692;-72
2022/12/07 03:55:40;;;;;;;;;;;;;;;12.37;72.06;101431.19;1262286;23;630;-71
2022/12/07 03:56:30;;;;;;;;;;;;;;;12.38;71.92;101422.22;1262256;23;661;-71
2022/12/07 03:57:21;;;;;;;;;;;;;;;12.37;71.99;101426.69;1261472;23;634;-71
2022/12/07 03:58:11;;;;;;;;;;;;;;;12.37;72.90;101424.03;1261457;23;669;-71
2022/12/07 03:59:01;;;;;;;;;;;;;;;12.37;72.87;101425.84;1261483;23;634;-72
2022/12/07 03:59:52;;;;;;;;;;;;;;;12.35;73.03;101428.63;1260836;23;661;-71
2022/12/07 04:00:42;;;;;;;;;;;;;;;12.35;72.22;101425.09;1262438;23;688;-71
2022/12/07 04:01:33;;;;;;;;;;;;;;;12.35;72.66;101430.44;1261533;23;622;-71
2022/12/07 04:02:23;;;;;;;;;;;;;;;12.35;72.84;101420.63;1261321;23;610;-71
2022/12/07 04:03:13;;;;;;;;;;;;;;;12.36;72.17;101421.47;1262332;23;672;-71
2022/12/07 04:04:04;;;;;;;;;;;;;;;12.35;71.94;101420.63;1261454;23;804;-71
2022/12/07 04:04:54;;;;;;;;;;;;;;;12.36;72.02;101424.16;1261339;23;1890;-71
2022/12/07 04:05:45;;;;;;;;;;;;;;;12.35;72.54;101428.63;1262232;23;665;-71
2022/12/07 04:06:35;;;;;;;;;;;;;;;12.33;72.03;101413.66;1261454;23;828;-71
2022/12/07 04:07:26;;;;;;;;;;;;;;;12.33;72.46;101417.19;1262346;23;631;-71
2022/12/07 04:08:16;;;;;;;;;;;;;;;12.32;71.96;101415.47;1261471;23;647;-71
2022/12/07 04:09:07;;;;;;;;;;;;;;;12.33;72.20;101419.84;1261442;23;614;-71
2022/12/07 04:09:57;;;;;;;;;;;;;;;12.34;72.85;101416.22;1261468;23;666;-71
2022/12/07 04:10:47;;;;;;;;;;;;;;;12.34;72.04;101423.38;1262290;23;645;-72
2022/12/07 04:11:38;;;;;;;;;;;;;;;12.36;72.06;101416.97;1261363;23;645;-72
2022/12/07 04:12:28;;;;;;;;;;;;;;;12.36;71.93;101418.81;1261524;23;626;-71
2022/12/07 04:13:19;;;;;;;;;;;;;;;12.35;71.91;101419.75;1261454;23;626;-72
2022/12/07 04:14:18;;;;;;;;;;;;;;;12.35;72.56;101422.44;1260933;23;618;-72
2022/12/07 04:15:09;;;;;;;;;;;;;;;12.38;72.30;101424.88;1261358;23;614;-72
2022/12/07 04:15:59;;;;;;;;;;;;;;;12.37;72.61;101423.16;1261492;23;688;-71
2022/12/07 04:16:50;;;;;;;;;;;;;;;12.37;72.64;101412.47;1261308;23;610;-71
2022/12/07 04:17:40;;;;;;;;;;;;;;;12.36;72.57;101424.16;1261452;23;543;-71
2022/12/07 04:18:30;;;;;;;;;;;;;;;12.35;72.49;101428.63;1261438;23;650;-71
2022/12/07 04:19:21;;;;;;;;;;;;;;;12.36;72.81;101430.31;1261446;23;634;-70
2022/12/07 04:20:11;;;;;;;;;;;;;;;12.37;72.17;101441.88;1261546;23;653;-71
2022/12/07 04:21:02;;;;;;;;;;;;;;;12.35;72.23;101442.00;1261481;23;792;-71
2022/12/07 04:21:52;;;;;;;;;;;;;;;12.34;72.70;101450.97;1261487;23;654;-71
2022/12/07 04:22:43;;;;;;;;;;;;;;;12.35;71.97;101459.84;1261462;23;618;-70
2022/12/07 04:23:33;;;;;;;;;;;;;;;12.35;71.78;101455.38;1262119;23;697;-70
2022/12/07 04:24:24;;;;;;;;;;;;;;;12.34;72.13;101450.97;1261519;23;666;-70
2022/12/07 04:25:14;;;;;;;;;;;;;;;12.36;72.71;101450.88;1261476;23;650;-70
2022/12/07 04:26:04;;;;;;;;;;;;;;;12.37;72.48;101453.44;1262449;23;657;-70
2022/12/07 04:26:55;;;;;;;;;;;;;;;12.37;72.61;101434.72;1261111;23;646;-70
2022/12/07 04:27:45;;;;;;;;;;;;;;;12.37;72.45;101440.06;1261380;23;650;-70